sensor_id;sensor_type;location;lat;lon;timestamp;P1;durP1;ratioP1;P2;durP2;ratioP2
12286;SDS011;6206;53.100;11.098;2022-11-15T00:00:30;23.87;;;13.97;;
12286;SDS011;6206;53.100;11.098;2022-11-15T00:02:57;24.15;;;13.23;;
12286;SDS011;6206;53.100;11.098;2022-11-15T00:05:24;24.40;;;13.75;;
12286;SDS011;6206;53.100;11.098;2022-11-15T00:07:51;23.80;;;13.53;;
12286;SDS011;6206;53.100;11.098;2022-11-15T00:10:17;22.70;;;12.95;;
12286;SDS011;6206;53.100;11.098;2022-11-15T00:12:44;24.87;;;13.63;;
12286;SDS011;6206;53.100;11.098;2022-11-15T00:15:11;22.85;;;13.27;;
12286;SDS011;6206;53.100;11.098;2022-11-15T00:17:39;23.43;;;12.90;;
12286;SDS011;6206;53.100;11.098;2022-11-15T00:20:06;22.50;;;12.98;;
12286;SDS011;6206;53.100;11.098;2022-11-15T00:22:34;21.08;;;12.40;;
12286;SDS011;6206;53.100;11.098;2022-11-15T00:25:00;20.90;;;12.45;;
12286;SDS011;6206;53.100;11.098;2022-11-15T00:27:28;18.80;;;11.77;;
12286;SDS011;6206;53.100;11.098;2022-11-15T00:29:55;21.43;;;12.13;;
12286;SDS011;6206;53.100;11.098;2022-11-15T00:32:22;23.60;;;12.48;;
12286;SDS011;6206;53.100;11.098;2022-11-15T00:34:50;21.88;;;12.85;;
12286;SDS011;6206;53.100;11.098;2022-11-15T00:37:16;26.37;;;13.37;;
12286;SDS011;6206;53.100;11.098;2022-11-15T00:39:43;25.83;;;14.25;;
12286;SDS011;6206;53.100;11.098;2022-11-15T00:42:10;28.73;;;14.55;;
12286;SDS011;6206;53.100;11.098;2022-11-15T00:44:37;23.75;;;12.68;;
12286;SDS011;6206;53.100;11.098;2022-11-15T00:47:03;18.92;;;11.57;;
12286;SDS011;6206;53.100;11.098;2022-11-15T00:49:30;19.77;;;11.75;;
12286;SDS011;6206;53.100;11.098;2022-11-15T00:51:58;19.40;;;11.40;;
12286;SDS011;6206;53.100;11.098;2022-11-15T00:54:25;18.95;;;11.30;;
12286;SDS011;6206;53.100;11.098;2022-11-15T00:56:52;15.07;;;9.35;;
12286;SDS011;6206;53.100;11.098;2022-11-15T00:59:18;11.68;;;8.30;;
12286;SDS011;6206;53.100;11.098;2022-11-15T01:01:45;12.35;;;8.48;;
12286;SDS011;6206;53.100;11.098;2022-11-15T01:04:12;12.45;;;8.18;;
12286;SDS011;6206;53.100;11.098;2022-11-15T01:06:39;13.05;;;8.65;;
12286;SDS011;6206;53.100;11.098;2022-11-15T03:03:49;11.73;;;8.70;;
12286;SDS011;6206;53.100;11.098;2022-11-15T03:06:28;13.45;;;8.43;;
12286;SDS011;6206;53.100;11.098;2022-11-15T03:09:05;16.08;;;9.20;;
12286;SDS011;6206;53.100;11.098;2022-11-15T03:11:35;14.27;;;8.85;;
12286;SDS011;6206;53.100;11.098;2022-11-15T03:14:07;17.75;;;9.02;;
12286;SDS011;6206;53.100;11.098;2022-11-15T03:16:47;12.95;;;9.00;;
12286;SDS011;6206;53.100;11.098;2022-11-15T03:19:19;18.55;;;8.40;;
12286;SDS011;6206;53.100;11.098;2022-11-15T03:21:52;16.25;;;8.25;;
12286;SDS011;6206;53.100;11.098;2022-11-15T03:24:19;17.98;;;7.82;;
12286;SDS011;6206;53.100;11.098;2022-11-15T03:26:48;22.90;;;8.45;;
12286;SDS011;6206;53.100;11.098;2022-11-15T03:29:17;24.10;;;8.40;;
12286;SDS011;6206;53.100;11.098;2022-11-15T03:31:51;17.52;;;8.25;;
12286;SDS011;6206;53.100;11.098;2022-11-15T03:34:24;11.90;;;7.75;;
12286;SDS011;6206;53.100;11.098;2022-11-15T03:36:55;12.38;;;7.63;;
12286;SDS011;6206;53.100;11.098;2022-11-15T03:39:22;11.98;;;7.38;;
12286;SDS011;6206;53.100;11.098;2022-11-15T03:41:52;14.02;;;9.02;;
12286;SDS011;6206;53.100;11.098;2022-11-15T03:44:29;10.40;;;7.25;;
12286;SDS011;6206;53.100;11.098;2022-11-15T03:47:05;13.18;;;8.55;;
12286;SDS011;6206;53.100;11.098;2022-11-15T03:49:36;10.60;;;7.65;;
12286;SDS011;6206;53.100;11.098;2022-11-15T03:52:07;10.70;;;7.45;;
12286;SDS011;6206;53.100;11.098;2022-11-15T03:54:36;9.13;;;6.80;;
12286;SDS011;6206;53.100;11.098;2022-11-15T03:57:13;10.73;;;7.15;;
12286;SDS011;6206;53.100;11.098;2022-11-15T03:59:39;12.00;;;8.02;;
12286;SDS011;6206;53.100;11.098;2022-11-15T04:02:08;11.05;;;7.93;;
12286;SDS011;6206;53.100;11.098;2022-11-15T04:04:34;10.68;;;7.65;;
12286;SDS011;6206;53.100;11.098;2022-11-15T04:07:01;9.55;;;7.03;;
12286;SDS011;6206;53.100;11.098;2022-11-15T04:09:28;9.05;;;6.75;;
12286;SDS011;6206;53.100;11.098;2022-11-15T04:11:55;9.57;;;7.03;;
12286;SDS011;6206;53.100;11.098;2022-11-15T04:14:22;8.63;;;6.77;;
12286;SDS011;6206;53.100;11.098;2022-11-15T04:16:48;8.93;;;6.72;;
12286;SDS011;6206;53.100;11.098;2022-11-15T04:19:16;9.73;;;7.00;;
12286;SDS011;6206;53.100;11.098;2022-11-15T04:22:01;9.65;;;7.22;;
12286;SDS011;6206;53.100;11.098;2022-11-15T04:24:45;11.25;;;8.50;;
12286;SDS011;6206;53.100;11.098;2022-11-15T04:27:12;10.33;;;7.80;;
12286;SDS011;6206;53.100;11.098;2022-11-15T04:29:39;10.27;;;7.93;;
12286;SDS011;6206;53.100;11.098;2022-11-15T04:32:06;9.88;;;7.70;;
12286;SDS011;6206;53.100;11.098;2022-11-15T04:34:34;9.18;;;6.93;;
12286;SDS011;6206;53.100;11.098;2022-11-15T04:37:03;10.07;;;7.90;;
12286;SDS011;6206;53.100;11.098;2022-11-15T04:39:39;10.00;;;7.93;;
12286;SDS011;6206;53.100;11.098;2022-11-15T04:42:06;11.02;;;8.50;;
12286;SDS011;6206;53.100;11.098;2022-11-15T04:44:33;12.10;;;8.77;;
12286;SDS011;6206;53.100;11.098;2022-11-15T04:47:01;9.45;;;7.50;;
12286;SDS011;6206;53.100;11.098;2022-11-15T04:49:28;9.45;;;7.63;;
12286;SDS011;6206;53.100;11.098;2022-11-15T04:51:56;10.10;;;7.80;;
12286;SDS011;6206;53.100;11.098;2022-11-15T04:54:22;10.30;;;8.23;;
12286;SDS011;6206;53.100;11.098;2022-11-15T04:56:49;10.30;;;7.63;;
12286;SDS011;6206;53.100;11.098;2022-11-15T04:59:16;9.77;;;7.65;;
12286;SDS011;6206;53.100;11.098;2022-11-15T05:01:43;9.52;;;7.57;;
12286;SDS011;6206;53.100;11.098;2022-11-15T05:04:09;9.93;;;7.65;;
12286;SDS011;6206;53.100;11.098;2022-11-15T05:06:44;8.85;;;7.40;;
12286;SDS011;6206;53.100;11.098;2022-11-15T05:09:13;9.70;;;7.83;;
12286;SDS011;6206;53.100;11.098;2022-11-15T05:11:40;9.00;;;7.75;;
12286;SDS011;6206;53.100;11.098;2022-11-15T05:14:07;8.57;;;7.00;;
12286;SDS011;6206;53.100;11.098;2022-11-15T05:16:34;8.65;;;7.10;;
12286;SDS011;6206;53.100;11.098;2022-11-15T05:19:01;10.35;;;7.65;;
12286;SDS011;6206;53.100;11.098;2022-11-15T05:21:28;10.32;;;8.45;;
12286;SDS011;6206;53.100;11.098;2022-11-15T05:23:55;11.43;;;8.60;;
12286;SDS011;6206;53.100;11.098;2022-11-15T05:26:23;10.77;;;8.00;;
12286;SDS011;6206;53.100;11.098;2022-11-15T05:28:51;12.05;;;8.73;;
12286;SDS011;6206;53.100;11.098;2022-11-15T05:31:19;10.17;;;8.27;;
12286;SDS011;6206;53.100;11.098;2022-11-15T05:33:45;10.50;;;8.10;;
12286;SDS011;6206;53.100;11.098;2022-11-15T05:36:13;10.57;;;8.45;;
12286;SDS011;6206;53.100;11.098;2022-11-15T05:38:43;12.07;;;8.60;;
12286;SDS011;6206;53.100;11.098;2022-11-15T05:41:11;11.30;;;8.87;;
12286;SDS011;6206;53.100;11.098;2022-11-15T05:43:40;9.50;;;7.68;;
12286;SDS011;6206;53.100;11.098;2022-11-15T05:46:07;13.45;;;9.77;;
12286;SDS011;6206;53.100;11.098;2022-11-15T05:48:34;10.70;;;8.27;;
12286;SDS011;6206;53.100;11.098;2022-11-15T05:51:03;10.63;;;7.85;;
12286;SDS011;6206;53.100;11.098;2022-11-15T05:53:32;11.38;;;7.97;;
12286;SDS011;6206;53.100;11.098;2022-11-15T05:56:00;11.40;;;8.23;;
12286;SDS011;6206;53.100;11.098;2022-11-15T05:58:27;12.10;;;8.82;;
12286;SDS011;6206;53.100;11.098;2022-11-15T06:00:55;12.25;;;9.02;;
12286;SDS011;6206;53.100;11.098;2022-11-15T06:03:22;13.15;;;8.90;;
12286;SDS011;6206;53.100;11.098;2022-11-15T06:05:49;11.95;;;8.25;;
12286;SDS011;6206;53.100;11.098;2022-11-15T06:08:15;15.20;;;10.00;;
12286;SDS011;6206;53.100;11.098;2022-11-15T06:10:42;17.58;;;11.60;;
12286;SDS011;6206;53.100;11.098;2022-11-15T06:13:09;17.45;;;11.45;;
12286;SDS011;6206;53.100;11.098;2022-11-15T06:15:36;17.20;;;11.07;;
12286;SDS011;6206;53.100;11.098;2022-11-15T06:18:04;17.23;;;11.75;;
12286;SDS011;6206;53.100;11.098;2022-11-15T06:20:31;15.50;;;10.20;;
12286;SDS011;6206;53.100;11.098;2022-11-15T06:22:57;16.50;;;11.10;;
12286;SDS011;6206;53.100;11.098;2022-11-15T06:25:24;19.90;;;11.63;;
12286;SDS011;6206;53.100;11.098;2022-11-15T06:27:52;18.45;;;11.32;;
12286;SDS011;6206;53.100;11.098;2022-11-15T06:30:19;18.50;;;11.18;;
12286;SDS011;6206;53.100;11.098;2022-11-15T06:32:46;14.93;;;9.83;;
12286;SDS011;6206;53.100;11.098;2022-11-15T06:35:15;13.82;;;9.77;;
12286;SDS011;6206;53.100;11.098;2022-11-15T06:37:42;13.73;;;9.18;;
12286;SDS011;6206;53.100;11.098;2022-11-15T06:40:09;15.95;;;10.32;;
12286;SDS011;6206;53.100;11.098;2022-11-15T06:42:36;17.90;;;11.63;;
12286;SDS011;6206;53.100;11.098;2022-11-15T06:45:04;18.33;;;11.70;;
12286;SDS011;6206;53.100;11.098;2022-11-15T06:47:31;17.88;;;11.23;;
12286;SDS011;6206;53.100;11.098;2022-11-15T06:49:58;18.83;;;11.40;;
12286;SDS011;6206;53.100;11.098;2022-11-15T06:52:26;16.60;;;10.77;;
12286;SDS011;6206;53.100;11.098;2022-11-15T06:54:57;21.45;;;12.95;;
12286;SDS011;6206;53.100;11.098;2022-11-15T06:57:24;20.27;;;12.37;;
12286;SDS011;6206;53.100;11.098;2022-11-15T06:59:50;20.23;;;11.85;;
12286;SDS011;6206;53.100;11.098;2022-11-15T07:02:17;19.77;;;11.83;;
12286;SDS011;6206;53.100;11.098;2022-11-15T07:04:44;21.67;;;12.18;;
12286;SDS011;6206;53.100;11.098;2022-11-15T07:07:11;19.57;;;12.00;;
12286;SDS011;6206;53.100;11.098;2022-11-15T07:09:39;19.20;;;11.18;;
12286;SDS011;6206;53.100;11.098;2022-11-15T07:12:06;17.92;;;11.02;;
12286;SDS011;6206;53.100;11.098;2022-11-15T07:14:32;19.73;;;11.83;;
12286;SDS011;6206;53.100;11.098;2022-11-15T07:17:00;19.33;;;10.93;;
12286;SDS011;6206;53.100;11.098;2022-11-15T07:19:29;19.75;;;11.65;;
12286;SDS011;6206;53.100;11.098;2022-11-15T07:21:56;18.95;;;11.20;;
12286;SDS011;6206;53.100;11.098;2022-11-15T07:24:23;17.33;;;10.68;;
12286;SDS011;6206;53.100;11.098;2022-11-15T07:26:51;18.58;;;11.60;;
12286;SDS011;6206;53.100;11.098;2022-11-15T07:29:17;18.08;;;11.55;;
12286;SDS011;6206;53.100;11.098;2022-11-15T07:31:44;18.57;;;11.50;;
12286;SDS011;6206;53.100;11.098;2022-11-15T07:34:11;17.30;;;11.05;;
12286;SDS011;6206;53.100;11.098;2022-11-15T07:36:38;17.20;;;10.40;;
12286;SDS011;6206;53.100;11.098;2022-11-15T07:39:04;15.93;;;10.00;;
12286;SDS011;6206;53.100;11.098;2022-11-15T07:41:31;18.03;;;10.83;;
12286;SDS011;6206;53.100;11.098;2022-11-15T07:43:59;22.30;;;12.65;;
12286;SDS011;6206;53.100;11.098;2022-11-15T07:46:26;18.85;;;11.45;;
12286;SDS011;6206;53.100;11.098;2022-11-15T07:48:53;24.63;;;13.93;;
12286;SDS011;6206;53.100;11.098;2022-11-15T07:51:20;15.30;;;10.43;;
12286;SDS011;6206;53.100;11.098;2022-11-15T07:53:46;40.03;;;19.77;;
12286;SDS011;6206;53.100;11.098;2022-11-15T07:56:13;15.38;;;10.52;;
12286;SDS011;6206;53.100;11.098;2022-11-15T07:58:40;17.60;;;11.50;;
12286;SDS011;6206;53.100;11.098;2022-11-15T08:01:09;15.30;;;10.15;;
12286;SDS011;6206;53.100;11.098;2022-11-15T08:03:36;16.95;;;10.82;;
12286;SDS011;6206;53.100;11.098;2022-11-15T08:06:03;19.35;;;11.38;;
12286;SDS011;6206;53.100;11.098;2022-11-15T08:08:30;20.10;;;10.98;;
12286;SDS011;6206;53.100;11.098;2022-11-15T08:10:57;20.27;;;11.85;;
12286;SDS011;6206;53.100;11.098;2022-11-15T08:13:24;18.45;;;11.77;;
12286;SDS011;6206;53.100;11.098;2022-11-15T08:15:51;19.60;;;11.43;;
12286;SDS011;6206;53.100;11.098;2022-11-15T08:18:19;20.02;;;11.48;;
12286;SDS011;6206;53.100;11.098;2022-11-15T08:20:46;18.63;;;11.47;;
12286;SDS011;6206;53.100;11.098;2022-11-15T08:23:12;28.50;;;14.98;;
12286;SDS011;6206;53.100;11.098;2022-11-15T08:25:39;27.37;;;15.60;;
12286;SDS011;6206;53.100;11.098;2022-11-15T08:28:06;18.92;;;12.45;;
12286;SDS011;6206;53.100;11.098;2022-11-15T08:30:36;25.40;;;14.80;;
12286;SDS011;6206;53.100;11.098;2022-11-15T08:33:09;27.90;;;16.33;;
12286;SDS011;6206;53.100;11.098;2022-11-15T08:35:38;20.50;;;13.07;;
12286;SDS011;6206;53.100;11.098;2022-11-15T08:38:05;20.38;;;12.40;;
12286;SDS011;6206;53.100;11.098;2022-11-15T08:40:31;22.95;;;13.20;;
12286;SDS011;6206;53.100;11.098;2022-11-15T08:42:58;16.70;;;9.60;;
12286;SDS011;6206;53.100;11.098;2022-11-15T08:45:27;21.75;;;13.60;;
12286;SDS011;6206;53.100;11.098;2022-11-15T08:47:54;17.63;;;11.52;;
12286;SDS011;6206;53.100;11.098;2022-11-15T08:50:21;18.33;;;11.40;;
12286;SDS011;6206;53.100;11.098;2022-11-15T08:52:49;20.48;;;11.68;;
12286;SDS011;6206;53.100;11.098;2022-11-15T08:55:16;16.90;;;10.50;;
12286;SDS011;6206;53.100;11.098;2022-11-15T08:57:43;18.92;;;11.30;;
12286;SDS011;6206;53.100;11.098;2022-11-15T09:00:11;18.58;;;9.85;;
12286;SDS011;6206;53.100;11.098;2022-11-15T09:02:38;18.40;;;10.83;;
12286;SDS011;6206;53.100;11.098;2022-11-15T09:05:06;16.17;;;10.25;;
12286;SDS011;6206;53.100;11.098;2022-11-15T09:07:33;15.95;;;9.95;;
12286;SDS011;6206;53.100;11.098;2022-11-15T09:10:02;14.73;;;9.30;;
12286;SDS011;6206;53.100;11.098;2022-11-15T09:12:29;15.43;;;10.07;;
12286;SDS011;6206;53.100;11.098;2022-11-15T09:14:56;15.05;;;9.98;;
12286;SDS011;6206;53.100;11.098;2022-11-15T09:17:23;16.92;;;10.23;;
12286;SDS011;6206;53.100;11.098;2022-11-15T09:19:50;14.88;;;10.02;;
12286;SDS011;6206;53.100;11.098;2022-11-15T09:22:17;15.07;;;10.15;;
12286;SDS011;6206;53.100;11.098;2022-11-15T09:24:44;14.32;;;9.52;;
12286;SDS011;6206;53.100;11.098;2022-11-15T09:27:12;15.43;;;9.73;;
12286;SDS011;6206;53.100;11.098;2022-11-15T09:29:39;17.27;;;9.85;;
12286;SDS011;6206;53.100;11.098;2022-11-15T09:32:05;13.30;;;9.52;;
12286;SDS011;6206;53.100;11.098;2022-11-15T09:34:32;14.35;;;9.05;;
12286;SDS011;6206;53.100;11.098;2022-11-15T09:36:59;17.75;;;9.95;;
12286;SDS011;6206;53.100;11.098;2022-11-15T09:39:26;14.80;;;8.87;;
12286;SDS011;6206;53.100;11.098;2022-11-15T09:42:03;14.98;;;9.10;;
12286;SDS011;6206;53.100;11.098;2022-11-15T09:44:45;14.18;;;8.75;;
12286;SDS011;6206;53.100;11.098;2022-11-15T09:47:29;14.25;;;8.50;;
12286;SDS011;6206;53.100;11.098;2022-11-15T09:50:11;15.18;;;9.57;;
12286;SDS011;6206;53.100;11.098;2022-11-15T09:52:41;13.45;;;8.70;;
12286;SDS011;6206;53.100;11.098;2022-11-15T09:55:10;14.63;;;8.82;;
12286;SDS011;6206;53.100;11.098;2022-11-15T09:57:43;13.95;;;8.90;;
12286;SDS011;6206;53.100;11.098;2022-11-15T10:00:15;14.80;;;8.98;;
12286;SDS011;6206;53.100;11.098;2022-11-15T10:03:01;14.45;;;8.35;;
12286;SDS011;6206;53.100;11.098;2022-11-15T10:05:37;22.00;;;9.93;;
12286;SDS011;6206;53.100;11.098;2022-11-15T10:08:06;19.13;;;9.15;;
12286;SDS011;6206;53.100;11.098;2022-11-15T10:10:46;28.85;;;10.25;;
12286;SDS011;6206;53.100;11.098;2022-11-15T10:13:17;19.13;;;9.48;;
12286;SDS011;6206;53.100;11.098;2022-11-15T10:15:49;14.55;;;8.55;;
12286;SDS011;6206;53.100;11.098;2022-11-15T10:18:18;18.17;;;8.85;;
12286;SDS011;6206;53.100;11.098;2022-11-15T10:20:55;15.82;;;8.98;;
12286;SDS011;6206;53.100;11.098;2022-11-15T10:23:25;16.17;;;8.70;;
12286;SDS011;6206;53.100;11.098;2022-11-15T10:25:53;25.33;;;8.70;;
12286;SDS011;6206;53.100;11.098;2022-11-15T10:28:25;12.48;;;7.40;;
12286;SDS011;6206;53.100;11.098;2022-11-15T10:30:55;11.90;;;7.55;;
12286;SDS011;6206;53.100;11.098;2022-11-15T10:33:27;14.38;;;7.80;;
12286;SDS011;6206;53.100;11.098;2022-11-15T10:38:57;13.30;;;8.65;;
12286;SDS011;6206;53.100;11.098;2022-11-15T10:41:32;11.35;;;7.90;;
12286;SDS011;6206;53.100;11.098;2022-11-15T10:47:06;12.90;;;7.90;;
12286;SDS011;6206;53.100;11.098;2022-11-15T10:49:54;15.13;;;7.93;;
12286;SDS011;6206;53.100;11.098;2022-11-15T10:52:23;15.27;;;7.38;;
12286;SDS011;6206;53.100;11.098;2022-11-15T10:54:51;14.15;;;8.15;;
12286;SDS011;6206;53.100;11.098;2022-11-15T10:57:22;12.15;;;7.97;;
12286;SDS011;6206;53.100;11.098;2022-11-15T10:59:53;12.95;;;8.93;;
12286;SDS011;6206;53.100;11.098;2022-11-15T11:02:32;13.07;;;8.70;;
12286;SDS011;6206;53.100;11.098;2022-11-15T11:05:02;13.32;;;8.27;;
12286;SDS011;6206;53.100;11.098;2022-11-15T11:07:31;13.18;;;8.30;;
12286;SDS011;6206;53.100;11.098;2022-11-15T11:10:00;10.57;;;7.10;;
12286;SDS011;6206;53.100;11.098;2022-11-15T11:12:30;35.65;;;9.85;;
12286;SDS011;6206;53.100;11.098;2022-11-15T11:15:00;13.02;;;7.57;;
12286;SDS011;6206;53.100;11.098;2022-11-15T11:17:38;12.93;;;7.80;;
12286;SDS011;6206;53.100;11.098;2022-11-15T11:20:20;12.07;;;6.63;;
12286;SDS011;6206;53.100;11.098;2022-11-15T11:23:00;7.75;;;5.80;;
12286;SDS011;6206;53.100;11.098;2022-11-15T11:25:42;9.63;;;5.90;;
12286;SDS011;6206;53.100;11.098;2022-11-15T11:28:20;10.27;;;6.20;;
12286;SDS011;6206;53.100;11.098;2022-11-15T11:30:59;10.00;;;5.78;;
12286;SDS011;6206;53.100;11.098;2022-11-15T11:33:38;9.70;;;5.18;;
12286;SDS011;6206;53.100;11.098;2022-11-15T11:36:17;9.65;;;5.07;;
12286;SDS011;6206;53.100;11.098;2022-11-15T11:38:55;9.27;;;5.43;;
12286;SDS011;6206;53.100;11.098;2022-11-15T11:41:38;6.75;;;4.68;;
12286;SDS011;6206;53.100;11.098;2022-11-15T11:44:15;11.80;;;6.70;;
12286;SDS011;6206;53.100;11.098;2022-11-15T11:46:54;12.93;;;5.78;;
12286;SDS011;6206;53.100;11.098;2022-11-15T11:49:28;8.45;;;5.38;;
12286;SDS011;6206;53.100;11.098;2022-11-15T11:52:02;13.10;;;8.18;;
12286;SDS011;6206;53.100;11.098;2022-11-15T11:54:37;10.07;;;5.65;;
12286;SDS011;6206;53.100;11.098;2022-11-15T11:57:11;8.90;;;5.35;;
12286;SDS011;6206;53.100;11.098;2022-11-15T11:59:49;8.20;;;5.03;;
12286;SDS011;6206;53.100;11.098;2022-11-15T12:02:28;8.57;;;5.13;;
12286;SDS011;6206;53.100;11.098;2022-11-15T12:05:01;8.23;;;4.90;;
12286;SDS011;6206;53.100;11.098;2022-11-15T12:07:34;6.55;;;4.60;;
12286;SDS011;6206;53.100;11.098;2022-11-15T12:10:04;8.80;;;5.32;;
12286;SDS011;6206;53.100;11.098;2022-11-15T12:12:43;7.47;;;5.17;;
12286;SDS011;6206;53.100;11.098;2022-11-15T12:15:18;9.25;;;5.47;;
12286;SDS011;6206;53.100;11.098;2022-11-15T12:17:49;10.18;;;4.95;;
12286;SDS011;6206;53.100;11.098;2022-11-15T12:20:17;9.20;;;4.88;;
12286;SDS011;6206;53.100;11.098;2022-11-15T12:22:47;12.27;;;4.82;;
12286;SDS011;6206;53.100;11.098;2022-11-15T12:25:19;8.97;;;5.00;;
12286;SDS011;6206;53.100;11.098;2022-11-15T12:27:52;8.90;;;4.97;;
12286;SDS011;6206;53.100;11.098;2022-11-15T12:30:23;10.27;;;5.30;;
12286;SDS011;6206;53.100;11.098;2022-11-15T12:32:56;11.65;;;5.65;;
12286;SDS011;6206;53.100;11.098;2022-11-15T12:35:26;10.83;;;5.43;;
12286;SDS011;6206;53.100;11.098;2022-11-15T12:37:56;8.10;;;5.03;;
12286;SDS011;6206;53.100;11.098;2022-11-15T12:40:27;10.30;;;7.15;;
12286;SDS011;6206;53.100;11.098;2022-11-15T12:43:00;9.32;;;6.28;;
12286;SDS011;6206;53.100;11.098;2022-11-15T12:45:37;8.50;;;5.18;;
12286;SDS011;6206;53.100;11.098;2022-11-15T12:57:49;16.85;;;7.80;;
12286;SDS011;6206;53.100;11.098;2022-11-15T13:03:23;10.00;;;5.22;;
12286;SDS011;6206;53.100;11.098;2022-11-15T13:06:04;18.42;;;10.40;;
12286;SDS011;6206;53.100;11.098;2022-11-15T13:08:40;11.70;;;6.28;;
12286;SDS011;6206;53.100;11.098;2022-11-15T13:17:27;7.78;;;5.50;;
12286;SDS011;6206;53.100;11.098;2022-11-15T13:22:59;15.13;;;6.32;;
12286;SDS011;6206;53.100;11.098;2022-11-15T13:25:44;14.57;;;6.07;;
12286;SDS011;6206;53.100;11.098;2022-11-15T13:28:21;15.50;;;6.20;;
12286;SDS011;6206;53.100;11.098;2022-11-15T13:30:51;19.05;;;5.97;;
12286;SDS011;6206;53.100;11.098;2022-11-15T13:33:21;29.83;;;6.53;;
12286;SDS011;6206;53.100;11.098;2022-11-15T13:35:51;12.90;;;5.38;;
12286;SDS011;6206;53.100;11.098;2022-11-15T13:38:25;11.38;;;5.38;;
12286;SDS011;6206;53.100;11.098;2022-11-15T13:40:53;9.13;;;5.22;;
12286;SDS011;6206;53.100;11.098;2022-11-15T13:43:28;14.10;;;5.93;;
12286;SDS011;6206;53.100;11.098;2022-11-15T13:46:04;11.60;;;5.68;;
12286;SDS011;6206;53.100;11.098;2022-11-15T13:48:34;11.15;;;5.47;;
12286;SDS011;6206;53.100;11.098;2022-11-15T13:51:01;10.93;;;5.50;;
12286;SDS011;6206;53.100;11.098;2022-11-15T13:53:31;14.38;;;5.45;;
12286;SDS011;6206;53.100;11.098;2022-11-15T13:55:59;12.43;;;5.20;;
12286;SDS011;6206;53.100;11.098;2022-11-15T13:58:28;11.50;;;5.80;;
12286;SDS011;6206;53.100;11.098;2022-11-15T14:01:00;11.63;;;5.20;;
12286;SDS011;6206;53.100;11.098;2022-11-15T14:03:29;7.22;;;5.30;;
12286;SDS011;6206;53.100;11.098;2022-11-15T14:06:08;8.77;;;4.90;;
12286;SDS011;6206;53.100;11.098;2022-11-15T14:08:37;9.55;;;6.45;;
12286;SDS011;6206;53.100;11.098;2022-11-15T14:11:05;9.75;;;6.13;;
12286;SDS011;6206;53.100;11.098;2022-11-15T14:13:34;9.07;;;5.22;;
12286;SDS011;6206;53.100;11.098;2022-11-15T14:16:14;7.22;;;4.60;;
12286;SDS011;6206;53.100;11.098;2022-11-15T14:18:44;6.80;;;4.82;;
12286;SDS011;6206;53.100;11.098;2022-11-15T14:21:13;6.82;;;4.55;;
12286;SDS011;6206;53.100;11.098;2022-11-15T14:23:40;7.43;;;4.57;;
12286;SDS011;6206;53.100;11.098;2022-11-15T14:26:11;9.13;;;5.90;;
12286;SDS011;6206;53.100;11.098;2022-11-15T14:28:55;10.95;;;5.63;;
12286;SDS011;6206;53.100;11.098;2022-11-15T14:31:22;8.68;;;5.75;;
12286;SDS011;6206;53.100;11.098;2022-11-15T14:33:50;7.70;;;5.22;;
12286;SDS011;6206;53.100;11.098;2022-11-15T14:36:19;8.18;;;5.13;;
12286;SDS011;6206;53.100;11.098;2022-11-15T14:38:47;9.07;;;5.32;;
12286;SDS011;6206;53.100;11.098;2022-11-15T14:41:17;8.00;;;4.97;;
12286;SDS011;6206;53.100;11.098;2022-11-15T14:43:46;9.65;;;4.90;;
12286;SDS011;6206;53.100;11.098;2022-11-15T14:46:13;7.15;;;5.03;;
12286;SDS011;6206;53.100;11.098;2022-11-15T14:48:40;8.00;;;5.05;;
12286;SDS011;6206;53.100;11.098;2022-11-15T14:51:09;10.38;;;5.18;;
12286;SDS011;6206;53.100;11.098;2022-11-15T14:53:42;6.57;;;4.90;;
12286;SDS011;6206;53.100;11.098;2022-11-15T14:56:10;7.68;;;4.70;;
12286;SDS011;6206;53.100;11.098;2022-11-15T14:58:37;7.57;;;4.90;;
12286;SDS011;6206;53.100;11.098;2022-11-15T15:01:09;8.02;;;5.05;;
12286;SDS011;6206;53.100;11.098;2022-11-15T15:03:38;9.25;;;5.80;;
12286;SDS011;6206;53.100;11.098;2022-11-15T15:06:05;7.95;;;5.25;;
12286;SDS011;6206;53.100;11.098;2022-11-15T15:08:34;8.75;;;5.40;;
12286;SDS011;6206;53.100;11.098;2022-11-15T15:11:03;8.20;;;5.10;;
12286;SDS011;6206;53.100;11.098;2022-11-15T15:13:36;8.38;;;5.63;;
12286;SDS011;6206;53.100;11.098;2022-11-15T15:16:03;8.87;;;5.33;;
12286;SDS011;6206;53.100;11.098;2022-11-15T15:18:31;9.27;;;5.47;;
12286;SDS011;6206;53.100;11.098;2022-11-15T15:20:58;8.55;;;5.32;;
12286;SDS011;6206;53.100;11.098;2022-11-15T15:23:28;10.02;;;5.55;;
12286;SDS011;6206;53.100;11.098;2022-11-15T15:25:56;8.07;;;5.47;;
12286;SDS011;6206;53.100;11.098;2022-11-15T15:28:25;6.90;;;5.00;;
12286;SDS011;6206;53.100;11.098;2022-11-15T15:30:52;7.30;;;4.93;;
12286;SDS011;6206;53.100;11.098;2022-11-15T15:33:19;6.85;;;4.78;;
12286;SDS011;6206;53.100;11.098;2022-11-15T15:35:45;7.38;;;5.03;;
12286;SDS011;6206;53.100;11.098;2022-11-15T15:38:12;7.87;;;5.17;;
12286;SDS011;6206;53.100;11.098;2022-11-15T15:40:40;8.35;;;5.38;;
12286;SDS011;6206;53.100;11.098;2022-11-15T15:43:07;8.55;;;5.10;;
12286;SDS011;6206;53.100;11.098;2022-11-15T15:45:35;6.82;;;4.97;;
12286;SDS011;6206;53.100;11.098;2022-11-15T15:48:04;9.50;;;5.03;;
12286;SDS011;6206;53.100;11.098;2022-11-15T15:50:32;8.67;;;5.27;;
12286;SDS011;6206;53.100;11.098;2022-11-15T15:53:00;10.20;;;5.30;;
12286;SDS011;6206;53.100;11.098;2022-11-15T15:55:28;8.93;;;5.47;;
12286;SDS011;6206;53.100;11.098;2022-11-15T15:57:55;8.40;;;5.38;;
12286;SDS011;6206;53.100;11.098;2022-11-15T16:00:23;8.43;;;5.32;;
12286;SDS011;6206;53.100;11.098;2022-11-15T16:02:53;7.50;;;5.18;;
12286;SDS011;6206;53.100;11.098;2022-11-15T16:05:20;11.43;;;7.43;;
12286;SDS011;6206;53.100;11.098;2022-11-15T16:07:47;8.27;;;5.93;;
12286;SDS011;6206;53.100;11.098;2022-11-15T16:10:16;6.80;;;4.97;;
12286;SDS011;6206;53.100;11.098;2022-11-15T16:12:45;9.23;;;5.18;;
12286;SDS011;6206;53.100;11.098;2022-11-15T16:15:12;7.47;;;5.00;;
12286;SDS011;6206;53.100;11.098;2022-11-15T16:17:40;6.88;;;5.03;;
12286;SDS011;6206;53.100;11.098;2022-11-15T16:20:15;7.80;;;5.22;;
12286;SDS011;6206;53.100;11.098;2022-11-15T16:22:58;10.83;;;6.10;;
12286;SDS011;6206;53.100;11.098;2022-11-15T16:25:25;9.20;;;4.68;;
12286;SDS011;6206;53.100;11.098;2022-11-15T16:27:52;8.40;;;5.68;;
12286;SDS011;6206;53.100;11.098;2022-11-15T16:30:20;9.48;;;5.57;;
12286;SDS011;6206;53.100;11.098;2022-11-15T16:32:48;12.40;;;6.20;;
12286;SDS011;6206;53.100;11.098;2022-11-15T16:35:16;7.65;;;5.13;;
12286;SDS011;6206;53.100;11.098;2022-11-15T16:37:43;8.65;;;5.10;;
12286;SDS011;6206;53.100;11.098;2022-11-15T16:40:16;7.90;;;5.20;;
12286;SDS011;6206;53.100;11.098;2022-11-15T16:42:49;8.50;;;5.88;;
12286;SDS011;6206;53.100;11.098;2022-11-15T16:45:15;8.20;;;5.32;;
12286;SDS011;6206;53.100;11.098;2022-11-15T16:47:42;8.77;;;5.85;;
12286;SDS011;6206;53.100;11.098;2022-11-15T16:50:11;8.93;;;6.00;;
12286;SDS011;6206;53.100;11.098;2022-11-15T16:52:48;10.97;;;7.37;;
12286;SDS011;6206;53.100;11.098;2022-11-15T16:55:19;9.98;;;5.72;;
12286;SDS011;6206;53.100;11.098;2022-11-15T16:57:46;9.10;;;5.72;;
12286;SDS011;6206;53.100;11.098;2022-11-15T17:00:14;8.68;;;5.25;;
12286;SDS011;6206;53.100;11.098;2022-11-15T17:02:42;9.63;;;6.03;;
12286;SDS011;6206;53.100;11.098;2022-11-15T17:05:09;48.63;;;30.15;;
12286;SDS011;6206;53.100;11.098;2022-11-15T17:07:37;9.77;;;6.60;;
12286;SDS011;6206;53.100;11.098;2022-11-15T17:10:05;10.00;;;6.65;;
12286;SDS011;6206;53.100;11.098;2022-11-15T17:12:32;11.95;;;6.97;;